sensor_id;sensor_type;location;lat;lon;timestamp;temperature;humidity
83098;DHT22;72971;47.204;8.582;2023-11-21T00:00:49;19.30;47.10
83098;DHT22;72971;47.204;8.582;2023-11-21T00:05:51;19.30;47.10
83098;DHT22;72971;47.204;8.582;2023-11-21T00:10:56;19.30;47.10
83098;DHT22;72971;47.204;8.582;2023-11-21T00:16:01;19.30;47.70
83098;DHT22;72971;47.204;8.582;2023-11-21T00:21:03;19.30;47.00
83098;DHT22;72971;47.204;8.582;2023-11-21T00:26:06;19.30;47.60
83098;DHT22;72971;47.204;8.582;2023-11-21T00:31:08;19.30;47.00
83098;DHT22;72971;47.204;8.582;2023-11-21T00:36:11;19.30;47.20
83098;DHT22;72971;47.204;8.582;2023-11-21T00:41:13;19.30;46.90
83098;DHT22;72971;47.204;8.582;2023-11-21T00:46:16;19.30;47.00
83098;DHT22;72971;47.204;8.582;2023-11-21T00:51:19;19.30;46.90
83098;DHT22;72971;47.204;8.582;2023-11-21T00:56:21;19.30;47.00
83098;DHT22;72971;47.204;8.582;2023-11-21T01:01:24;19.30;47.00
83098;DHT22;72971;47.204;8.582;2023-11-21T01:06:26;19.30;47.00
83098;DHT22;72971;47.204;8.582;2023-11-21T01:11:29;19.30;47.00
83098;DHT22;72971;47.204;8.582;2023-11-21T01:16:32;19.30;47.00
83098;DHT22;72971;47.204;8.582;2023-11-21T01:21:34;19.30;47.00
83098;DHT22;72971;47.204;8.582;2023-11-21T01:26:37;19.30;47.00
83098;DHT22;72971;47.204;8.582;2023-11-21T01:31:39;19.30;47.00
83098;DHT22;72971;47.204;8.582;2023-11-21T01:36:42;19.30;47.00
83098;DHT22;72971;47.204;8.582;2023-11-21T01:41:45;19.30;47.10
83098;DHT22;72971;47.204;8.582;2023-11-21T01:46:48;19.30;47.10
83098;DHT22;72971;47.204;8.582;2023-11-21T01:51:51;19.20;47.00
83098;DHT22;72971;47.204;8.582;2023-11-21T01:56:54;19.30;47.00
83098;DHT22;72971;47.204;8.582;2023-11-21T02:01:56;19.30;47.10
83098;DHT22;72971;47.204;8.582;2023-11-21T02:07:00;19.20;47.00
83098;DHT22;72971;47.204;8.582;2023-11-21T02:12:03;19.20;47.10
83098;DHT22;72971;47.204;8.582;2023-11-21T02:17:05;19.20;47.10
83098;DHT22;72971;47.204;8.582;2023-11-21T02:22:09;19.20;47.10
83098;DHT22;72971;47.204;8.582;2023-11-21T02:27:13;19.20;47.10
83098;DHT22;72971;47.204;8.582;2023-11-21T02:32:17;19.20;47.10
83098;DHT22;72971;47.204;8.582;2023-11-21T02:37:20;19.20;47.10
83098;DHT22;72971;47.204;8.582;2023-11-21T02:42:23;19.20;47.10
83098;DHT22;72971;47.204;8.582;2023-11-21T02:47:25;19.20;47.20
83098;DHT22;72971;47.204;8.582;2023-11-21T02:52:28;19.20;47.20
83098;DHT22;72971;47.204;8.582;2023-11-21T02:57:30;19.20;47.20
83098;DHT22;72971;47.204;8.582;2023-11-21T03:02:33;19.20;47.20
83098;DHT22;72971;47.204;8.582;2023-11-21T03:07:39;19.20;47.10
83098;DHT22;72971;47.204;8.582;2023-11-21T03:12:42;19.20;47.10
83098;DHT22;72971;47.204;8.582;2023-11-21T03:17:45;19.20;47.10
83098;DHT22;72971;47.204;8.582;2023-11-21T03:22:50;19.20;47.10
83098;DHT22;72971;47.204;8.582;2023-11-21T03:27:52;19.20;47.10
83098;DHT22;72971;47.204;8.582;2023-11-21T03:32:55;19.20;47.20
83098;DHT22;72971;47.204;8.582;2023-11-21T03:37:58;19.20;47.20
83098;DHT22;72971;47.204;8.582;2023-11-21T03:43:00;19.20;47.80
83098;DHT22;72971;47.204;8.582;2023-11-21T03:48:03;19.20;47.20
83098;DHT22;72971;47.204;8.582;2023-11-21T03:53:05;19.20;47.20
83098;DHT22;72971;47.204;8.582;2023-11-21T03:58:08;19.20;47.20
83098;DHT22;72971;47.204;8.582;2023-11-21T04:03:11;19.20;47.20
83098;DHT22;72971;47.204;8.582;2023-11-21T04:08:14;19.20;47.30
83098;DHT22;72971;47.204;8.582;2023-11-21T04:13:16;19.20;47.20
83098;DHT22;72971;47.204;8.582;2023-11-21T04:18:19;19.20;47.20
83098;DHT22;72971;47.204;8.582;2023-11-21T04:23:21;19.20;47.20
83098;DHT22;72971;47.204;8.582;2023-11-21T04:28:24;19.20;47.20
83098;DHT22;72971;47.204;8.582;2023-11-21T04:33:27;19.20;47.20
83098;DHT22;72971;47.204;8.582;2023-11-21T04:38:30;19.20;47.30
83098;DHT22;72971;47.204;8.582;2023-11-21T04:43:34;19.20;47.30
83098;DHT22;72971;47.204;8.582;2023-11-21T04:48:36;19.10;47.20
83098;DHT22;72971;47.204;8.582;2023-11-21T04:53:39;19.20;47.20
83098;DHT22;72971;47.204;8.582;2023-11-21T04:58:41;19.20;47.90
83098;DHT22;72971;47.204;8.582;2023-11-21T05:03:44;19.10;47.90
83098;DHT22;72971;47.204;8.582;2023-11-21T05:08:48;19.20;47.30
83098;DHT22;72971;47.204;8.582;2023-11-21T05:13:50;19.20;47.30
83098;DHT22;72971;47.204;8.582;2023-11-21T05:18:53;19.20;47.90
83098;DHT22;72971;47.204;8.582;2023-11-21T05:23:57;19.10;47.20
83098;DHT22;72971;47.204;8.582;2023-11-21T05:29:00;19.10;47.20
83098;DHT22;72971;47.204;8.582;2023-11-21T05:34:03;19.20;47.30
83098;DHT22;72971;47.204;8.582;2023-11-21T05:39:06;19.20;47.30
83098;DHT22;72971;47.204;8.582;2023-11-21T05:44:09;19.10;47.20
83098;DHT22;72971;47.204;8.582;2023-11-21T05:49:11;19.10;47.20
83098;DHT22;72971;47.204;8.582;2023-11-21T05:54:14;19.20;47.30
83098;DHT22;72971;47.204;8.582;2023-11-21T05:59:16;19.10;47.20
83098;DHT22;72971;47.204;8.582;2023-11-21T06:04:19;19.20;47.30
83098;DHT22;72971;47.204;8.582;2023-11-21T06:09:23;19.20;47.30
83098;DHT22;72971;47.204;8.582;2023-11-21T06:14:26;19.20;47.30
83098;DHT22;72971;47.204;8.582;2023-11-21T06:19:29;19.10;47.20
83098;DHT22;72971;47.204;8.582;2023-11-21T06:24:32;19.10;47.30
83098;DHT22;72971;47.204;8.582;2023-11-21T06:29:34;19.20;47.30
83098;DHT22;72971;47.204;8.582;2023-11-21T06:34:36;19.10;47.30
83098;DHT22;72971;47.204;8.582;2023-11-21T06:39:39;19.10;47.30
83098;DHT22;72971;47.204;8.582;2023-11-21T06:44:42;19.10;47.30
83098;DHT22;72971;47.204;8.582;2023-11-21T06:49:45;19.20;47.30
83098;DHT22;72971;47.204;8.582;2023-11-21T06:54:50;19.20;47.40
83098;DHT22;72971;47.204;8.582;2023-11-21T06:59:52;19.20;47.40
83098;DHT22;72971;47.204;8.582;2023-11-21T07:04:55;19.20;47.40
83098;DHT22;72971;47.204;8.582;2023-11-21T07:09:57;19.20;47.40
83098;DHT22;72971;47.204;8.582;2023-11-21T07:15:02;19.10;47.30
83098;DHT22;72971;47.204;8.582;2023-11-21T07:20:07;19.10;47.40
83098;DHT22;72971;47.204;8.582;2023-11-21T07:25:10;19.20;47.50
83098;DHT22;72971;47.204;8.582;2023-11-21T07:30:13;19.10;47.30
83098;DHT22;72971;47.204;8.582;2023-11-21T07:35:16;19.10;47.40
83098;DHT22;72971;47.204;8.582;2023-11-21T07:40:19;19.10;47.40
83098;DHT22;72971;47.204;8.582;2023-11-21T07:45:21;19.20;47.40
83098;DHT22;72971;47.204;8.582;2023-11-21T07:50:24;19.20;47.40
83098;DHT22;72971;47.204;8.582;2023-11-21T07:55:28;19.10;48.00
83098;DHT22;72971;47.204;8.582;2023-11-21T08:00:32;19.20;47.50
83098;DHT22;72971;47.204;8.582;2023-11-21T08:05:36;19.20;47.30
83098;DHT22;72971;47.204;8.582;2023-11-21T08:10:39;19.20;47.30
83098;DHT22;72971;47.204;8.582;2023-11-21T08:15:42;19.20;47.30
83098;DHT22;72971;47.204;8.582;2023-11-21T08:20:48;19.20;47.30
83098;DHT22;72971;47.204;8.582;2023-11-21T08:25:54;19.20;47.30
83098;DHT22;72971;47.204;8.582;2023-11-21T08:30:56;19.20;47.30
83098;DHT22;72971;47.204;8.582;2023-11-21T08:35:59;19.10;47.30
83098;DHT22;72971;47.204;8.582;2023-11-21T08:41:08;19.20;47.40
83098;DHT22;72971;47.204;8.582;2023-11-21T08:46:08;19.20;47.40
83098;DHT22;72971;47.204;8.582;2023-11-21T08:51:11;19.20;47.40
83098;DHT22;72971;47.204;8.582;2023-11-21T08:56:15;19.20;47.40
83098;DHT22;72971;47.204;8.582;2023-11-21T09:01:18;19.20;47.40
83098;DHT22;72971;47.204;8.582;2023-11-21T09:06:20;19.20;48.10
83098;DHT22;72971;47.204;8.582;2023-11-21T09:11:23;19.20;47.90
83098;DHT22;72971;47.204;8.582;2023-11-21T09:16:26;19.20;48.20
83098;DHT22;72971;47.204;8.582;2023-11-21T09:21:29;19.20;48.20
83098;DHT22;72971;47.204;8.582;2023-11-21T09:26:32;19.30;48.40
83098;DHT22;72971;47.204;8.582;2023-11-21T09:31:34;19.30;48.70
83098;DHT22;72971;47.204;8.582;2023-11-21T09:36:37;19.30;48.70
83098;DHT22;72971;47.204;8.582;2023-11-21T09:41:52;19.40;48.80
83098;DHT22;72971;47.204;8.582;2023-11-21T09:46:59;19.30;48.90
83098;DHT22;72971;47.204;8.582;2023-11-21T09:52:02;19.40;49.00
83098;DHT22;72971;47.204;8.582;2023-11-21T09:57:05;19.40;50.00
83098;DHT22;72971;47.204;8.582;2023-11-21T10:02:08;19.40;49.20
83098;DHT22;72971;47.204;8.582;2023-11-21T10:07:13;19.40;49.00
83098;DHT22;72971;47.204;8.582;2023-11-21T10:12:18;19.40;49.00
83098;DHT22;72971;47.204;8.582;2023-11-21T10:17:24;19.40;48.90
83098;DHT22;72971;47.204;8.582;2023-11-21T10:22:32;19.40;48.90
83098;DHT22;72971;47.204;8.582;2023-11-21T10:27:37;19.40;48.90
83098;DHT22;72971;47.204;8.582;2023-11-21T10:32:44;19.50;49.10
83098;DHT22;72971;47.204;8.582;2023-11-21T10:37:54;19.50;49.30
83098;DHT22;72971;47.204;8.582;2023-11-21T10:42:53;19.50;49.10
83098;DHT22;72971;47.204;8.582;2023-11-21T10:47:57;19.50;49.00
83098;DHT22;72971;47.204;8.582;2023-11-21T10:53:02;19.50;49.10
83098;DHT22;72971;47.204;8.582;2023-11-21T10:58:05;19.50;48.90
83098;DHT22;72971;47.204;8.582;2023-11-21T11:03:09;19.50;49.00
83098;DHT22;72971;47.204;8.582;2023-11-21T11:08:15;19.50;49.80
83098;DHT22;72971;47.204;8.582;2023-11-21T11:13:20;19.50;49.00
83098;DHT22;72971;47.204;8.582;2023-11-21T11:18:23;19.50;48.90
83098;DHT22;72971;47.204;8.582;2023-11-21T11:23:53;19.50;48.80
83098;DHT22;72971;47.204;8.582;2023-11-21T11:39:40;19.70;48.80
83098;DHT22;72971;47.204;8.582;2023-11-21T11:44:47;19.90;48.60
83098;DHT22;72971;47.204;8.582;2023-11-21T11:50:10;20.00;48.40
83098;DHT22;72971;47.204;8.582;2023-11-21T11:55:16;20.10;48.30
83098;DHT22;72971;47.204;8.582;2023-11-21T12:05:35;20.40;48.10
83098;DHT22;72971;47.204;8.582;2023-11-21T12:10:40;20.50;48.00
83098;DHT22;72971;47.204;8.582;2023-11-21T12:15:43;20.60;48.50
83098;DHT22;72971;47.204;8.582;2023-11-21T12:20:47;20.70;47.80
83098;DHT22;72971;47.204;8.582;2023-11-21T12:25:52;20.80;48.60
83098;DHT22;72971;47.204;8.582;2023-11-21T12:30:55;20.70;48.10
83098;DHT22;72971;47.204;8.582;2023-11-21T12:35:58;20.80;48.10
83098;DHT22;72971;47.204;8.582;2023-11-21T12:41:01;20.70;48.10
83098;DHT22;72971;47.204;8.582;2023-11-21T12:46:11;20.70;48.20
83098;DHT22;72971;47.204;8.582;2023-11-21T12:51:15;20.70;48.20
83098;DHT22;72971;47.204;8.582;2023-11-21T12:56:21;20.70;48.50
83098;DHT22;72971;47.204;8.582;2023-11-21T13:01:26;20.70;48.60
83098;DHT22;72971;47.204;8.582;2023-11-21T13:06:32;20.60;48.50
83098;DHT22;72971;47.204;8.582;2023-11-21T13:11:37;20.60;48.70
83098;DHT22;72971;47.204;8.582;2023-11-21T13:16:41;20.60;48.70
83098;DHT22;72971;47.204;8.582;2023-11-21T13:21:45;20.60;48.80
83098;DHT22;72971;47.204;8.582;2023-11-21T13:26:48;20.60;48.80
83098;DHT22;72971;47.204;8.582;2023-11-21T13:31:51;20.60;48.90
83098;DHT22;72971;47.204;8.582;2023-11-21T13:36:54;20.60;48.80
83098;DHT22;72971;47.204;8.582;2023-11-21T13:41:59;20.60;48.30
83098;DHT22;72971;47.204;8.582;2023-11-21T13:47:01;20.60;48.30
83098;DHT22;72971;47.204;8.582;2023-11-21T13:52:04;20.50;48.30
83098;DHT22;72971;47.204;8.582;2023-11-21T13:57:08;20.50;48.30
83098;DHT22;72971;47.204;8.582;2023-11-21T14:02:11;20.50;48.30
83098;DHT22;72971;47.204;8.582;2023-11-21T14:07:15;20.50;48.40
83098;DHT22;72971;47.204;8.582;2023-11-21T14:12:22;20.50;48.40
83098;DHT22;72971;47.204;8.582;2023-11-21T14:17:24;20.50;48.50
83098;DHT22;72971;47.204;8.582;2023-11-21T14:22:28;20.50;48.60
83098;DHT22;72971;47.204;8.582;2023-11-21T14:27:31;20.50;48.60
83098;DHT22;72971;47.204;8.582;2023-11-21T14:32:34;20.50;48.70
83098;DHT22;72971;47.204;8.582;2023-11-21T14:37:39;20.50;48.80
83098;DHT22;72971;47.204;8.582;2023-11-21T14:42:42;20.40;48.80
83098;DHT22;72971;47.204;8.582;2023-11-21T14:47:49;20.50;48.90
83098;DHT22;72971;47.204;8.582;2023-11-21T14:52:53;20.50;48.90
83098;DHT22;72971;47.204;8.582;2023-11-21T14:57:58;20.50;48.80
83098;DHT22;72971;47.204;8.582;2023-11-21T15:03:03;20.50;49.00
83098;DHT22;72971;47.204;8.582;2023-11-21T15:08:06;20.50;49.00
83098;DHT22;72971;47.204;8.582;2023-11-21T15:13:25;20.40;48.90
83098;DHT22;72971;47.204;8.582;2023-11-21T15:18:30;20.40;49.10
83098;DHT22;72971;47.204;8.582;2023-11-21T15:23:33;20.50;49.30
83098;DHT22;72971;47.204;8.582;2023-11-21T15:28:36;20.40;49.00
83098;DHT22;72971;47.204;8.582;2023-11-21T15:33:39;20.50;49.30
83098;DHT22;72971;47.204;8.582;2023-11-21T15:38:41;20.50;49.20
83098;DHT22;72971;47.204;8.582;2023-11-21T15:43:45;20.50;49.10
83098;DHT22;72971;47.204;8.582;2023-11-21T15:48:49;20.50;49.00
83098;DHT22;72971;47.204;8.582;2023-11-21T15:53:53;20.50;48.90
83098;DHT22;72971;47.204;8.582;2023-11-21T15:58:56;20.40;48.80
83098;DHT22;72971;47.204;8.582;2023-11-21T16:03:58;20.50;48.80
83098;DHT22;72971;47.204;8.582;2023-11-21T16:09:02;20.50;49.20
83098;DHT22;72971;47.204;8.582;2023-11-21T16:14:06;20.50;49.20
83098;DHT22;72971;47.204;8.582;2023-11-21T16:19:08;20.50;49.20
83098;DHT22;72971;47.204;8.582;2023-11-21T16:24:11;20.50;49.00
83098;DHT22;72971;47.204;8.582;2023-11-21T16:29:14;20.50;48.90
83098;DHT22;72971;47.204;8.582;2023-11-21T16:34:19;20.50;48.90
83098;DHT22;72971;47.204;8.582;2023-11-21T16:39:23;20.50;49.10
83098;DHT22;72971;47.204;8.582;2023-11-21T16:44:26;20.50;48.70
83098;DHT22;72971;47.204;8.582;2023-11-21T16:49:28;20.50;48.80
83098;DHT22;72971;47.204;8.582;2023-11-21T16:54:32;20.60;48.80
83098;DHT22;72971;47.204;8.582;2023-11-21T16:59:35;20.60;48.80
83098;DHT22;72971;47.204;8.582;2023-11-21T17:04:37;20.60;48.60
83098;DHT22;72971;47.204;8.582;2023-11-21T17:09:42;20.60;49.20
83098;DHT22;72971;47.204;8.582;2023-11-21T17:14:45;20.60;48.80
83098;DHT22;72971;47.204;8.582;2023-11-21T17:19:49;20.60;48.40
83098;DHT22;72971;47.204;8.582;2023-11-21T17:24:52;20.60;48.60
83098;DHT22;72971;47.204;8.582;2023-11-21T17:29:55;20.60;48.30
83098;DHT22;72971;47.204;8.582;2023-11-21T17:34:57;20.60;48.60
83098;DHT22;72971;47.204;8.582;2023-11-21T17:40:01;20.60;48.40
83098;DHT22;72971;47.204;8.582;2023-11-21T17:45:06;20.60;48.70
83098;DHT22;72971;47.204;8.582;2023-11-21T17:50:09;20.60;48.40
83098;DHT22;72971;47.204;8.582;2023-11-21T17:55:12;20.60;48.50
83098;DHT22;72971;47.204;8.582;2023-11-21T18:00:15;20.60;48.30
83098;DHT22;72971;47.204;8.582;2023-11-21T18:05:18;20.60;48.30
83098;DHT22;72971;47.204;8.582;2023-11-21T18:10:22;20.60;48.30
83098;DHT22;72971;47.204;8.582;2023-11-21T18:15:25;20.60;48.30
83098;DHT22;72971;47.204;8.582;2023-11-21T18:20:27;20.60;48.40
83098;DHT22;72971;47.204;8.582;2023-11-21T18:25:31;20.60;48.30
83098;DHT22;72971;47.204;8.582;2023-11-21T18:30:34;20.60;48.30
83098;DHT22;72971;47.204;8.582;2023-11-21T18:35:37;20.60;48.30
83098;DHT22;72971;47.204;8.582;2023-11-21T18:40:40;20.60;48.30
83098;DHT22;72971;47.204;8.582;2023-11-21T18:45:42;20.60;48.30
83098;DHT22;72971;47.204;8.582;2023-11-21T18:50:46;20.60;48.30
83098;DHT22;72971;47.204;8.582;2023-11-21T18:55:50;20.60;48.30
83098;DHT22;72971;47.204;8.582;2023-11-21T19:00:52;20.50;48.30
83098;DHT22;72971;47.204;8.582;2023-11-21T19:05:55;20.60;48.30
83098;DHT22;72971;47.204;8.582;2023-11-21T19:10:57;20.50;48.20
83098;DHT22;72971;47.204;8.582;2023-11-21T19:16:00;20.60;48.30
83098;DHT22;72971;47.204;8.582;2023-11-21T19:21:03;20.60;48.30
83098;DHT22;72971;47.204;8.582;2023-11-21T19:26:05;20.60;48.30
83098;DHT22;72971;47.204;8.582;2023-11-21T19:31:19;20.50;48.30
83098;DHT22;72971;47.204;8.582;2023-11-21T19:36:22;20.60;48.30
83098;DHT22;72971;47.204;8.582;2023-11-21T19:41:24;20.60;48.30
83098;DHT22;72971;47.204;8.582;2023-11-21T19:46:28;20.60;48.20
83098;DHT22;72971;47.204;8.582;2023-11-21T19:51:31;20.50;48.20
83098;DHT22;72971;47.204;8.582;2023-11-21T19:56:33;20.50;48.20
83098;DHT22;72971;47.204;8.582;2023-11-21T20:01:37;20.50;48.20
83098;DHT22;72971;47.204;8.582;2023-11-21T20:06:41;20.50;48.20
83098;DHT22;72971;47.204;8.582;2023-11-21T20:11:44;20.60;48.20
83098;DHT22;72971;47.204;8.582;2023-11-21T20:16:48;20.50;48.20
83098;DHT22;72971;47.204;8.582;2023-11-21T20:21:51;20.50;48.20
83098;DHT22;72971;47.204;8.582;2023-11-21T20:26:56;20.50;48.20
83098;DHT22;72971;47.204;8.582;2023-11-21T20:31:59;20.50;48.20
83098;DHT22;72971;47.204;8.582;2023-11-21T20:37:01;20.50;48.20
83098;DHT22;72971;47.204;8.582;2023-11-21T20:42:04;20.50;48.20
83098;DHT22;72971;47.204;8.582;2023-11-21T20:47:06;20.50;48.10
83098;DHT22;72971;47.204;8.582;2023-11-21T20:52:09;20.50;48.10
83098;DHT22;72971;47.204;8.582;2023-11-21T20:57:12;20.50;48.10
83098;DHT22;72971;47.204;8.582;2023-11-21T21:02:20;20.50;48.10
83098;DHT22;72971;47.204;8.582;2023-11-21T21:07:19;20.50;48.10
83098;DHT22;72971;47.204;8.582;2023-11-21T21:12:21;20.50;48.10
83098;DHT22;72971;47.204;8.582;2023-11-21T21:17:24;20.60;48.10
83098;DHT22;72971;47.204;8.582;2023-11-21T21:22:27;20.50;48.10
83098;DHT22;72971;47.204;8.582;2023-11-21T21:27:30;20.50;48.00
83098;DHT22;72971;47.204;8.582;2023-11-21T21:32:33;20.50;48.10
83098;DHT22;72971;47.204;8.582;2023-11-21T21:37:35;20.50;48.10
83098;DHT22;72971;47.204;8.582;2023-11-21T21:42:38;20.50;48.00
83098;DHT22;72971;47.204;8.582;2023-11-21T21:47:40;20.50;48.10
83098;DHT22;72971;47.204;8.582;2023-11-21T21:52:43;20.50;48.00
83098;DHT22;72971;47.204;8.582;2023-11-21T21:57:46;20.50;48.00
83098;DHT22;72971;47.204;8.582;2023-11-21T22:02:49;20.50;48.00
83098;DHT22;72971;47.204;8.582;2023-11-21T22:07:51;20.50;48.00
83098;DHT22;72971;47.204;8.582;2023-11-21T22:12:54;20.50;48.00
83098;DHT22;72971;47.204;8.582;2023-11-21T22:17:56;20.50;48.00
83098;DHT22;72971;47.204;8.582;2023-11-21T22:23:00;20.50;48.00
83098;DHT22;72971;47.204;8.582;2023-11-21T22:28:03;20.50;47.50
83098;DHT22;72971;47.204;8.582;2023-11-21T22:33:06;20.50;48.00
83098;DHT22;72971;47.204;8.582;2023-11-21T22:38:09;20.50;48.00
83098;DHT22;72971;47.204;8.582;2023-11-21T22:43:13;20.50;48.00
83098;DHT22;72971;47.204;8.582;2023-11-21T22:48:17;20.50;48.00
83098;DHT22;72971;47.204;8.582;2023-11-21T22:53:20;20.50;48.00
83098;DHT22;72971;47.204;8.582;2023-11-21T22:58:22;20.50;48.00
83098;DHT22;72971;47.204;8.582;2023-11-21T23:03:25;20.50;47.90
83098;DHT22;72971;47.204;8.582;2023-11-21T23:08:28;20.50;47.90
83098;DHT22;72971;47.204;8.582;2023-11-21T23:13:31;20.50;47.90
83098;DHT22;72971;47.204;8.582;2023-11-21T23:18:33;20.50;47.90
83098;DHT22;72971;47.204;8.582;2023-11-21T23:23:36;20.50;48.00
83098;DHT22;72971;47.204;8.582;2023-11-21T23:28:40;20.50;47.90
83098;DHT22;72971;47.204;8.582;2023-11-21T23:33:44;20.50;48.00
83098;DHT22;72971;47.204;8.582;2023-11-21T23:38:46;20.50;48.00
83098;DHT22;72971;47.204;8.582;2023-11-21T23:43:49;20.40;47.90
83098;DHT22;72971;47.204;8.582;2023-11-21T23:48:52;20.40;47.90
83098;DHT22;72971;47.204;8.582;2023-11-21T23:53:55;20.40;47.90
83098;DHT22;72971;47.204;8.582;2023-11-21T23:58:57;20.40;47.90
